Terminal Aerodrome Forecast
Issued by NWS

Home | Current Version | Previous Version | Text Only | Print | Product List | Glossary On
Versions: 1 2 3 4 5 6 7 8 9 10 11 12 13 14 15 16 17
000
FTUS46 KPDT 312300
TAFPSC
TAF
KPSC 312327Z 0100/0124 22008KT P6SM SCT070 OVC090
     FM010200 22005KT P6SM SCT060 OVC080
     FM010600 VRB04KT P6SM BKN050 OVC060
     FM011300 34004KT 5SM -RA BR BKN025 OVC030
     FM012100 31005KT P6SM SCT030 BKN050=

USA.gov is the U.S. government's official web portal to all federal, state and local government web resources and services.